sensor_id;sensor_type;location;lat;lon;timestamp;P1;durP1;ratioP1;P2;durP2;ratioP2
17566;SDS011;8901;52.088;5.084;2023-06-14T00:01:58;12.15;;;10.38;;
17566;SDS011;8901;52.088;5.084;2023-06-14T00:04:25;11.68;;;10.80;;
17566;SDS011;8901;52.088;5.084;2023-06-14T00:06:54;11.32;;;10.48;;
17566;SDS011;8901;52.088;5.084;2023-06-14T00:09:24;11.88;;;10.82;;
17566;SDS011;8901;52.088;5.084;2023-06-14T00:11:53;11.43;;;10.52;;
17566;SDS011;8901;52.088;5.084;2023-06-14T00:14:22;10.98;;;10.07;;
17566;SDS011;8901;52.088;5.084;2023-06-14T00:16:51;10.90;;;9.80;;
17566;SDS011;8901;52.088;5.084;2023-06-14T00:19:29;11.30;;;10.18;;
17566;SDS011;8901;52.088;5.084;2023-06-14T00:22:05;11.82;;;10.77;;
17566;SDS011;8901;52.088;5.084;2023-06-14T00:24:32;12.52;;;11.32;;
17566;SDS011;8901;52.088;5.084;2023-06-14T00:27:00;12.98;;;11.13;;
17566;SDS011;8901;52.088;5.084;2023-06-14T00:29:27;10.60;;;9.77;;
17566;SDS011;8901;52.088;5.084;2023-06-14T00:32:02;11.65;;;10.75;;
17566;SDS011;8901;52.088;5.084;2023-06-14T00:34:30;11.23;;;10.05;;
17566;SDS011;8901;52.088;5.084;2023-06-14T00:36:58;11.63;;;10.63;;
17566;SDS011;8901;52.088;5.084;2023-06-14T00:41:57;11.18;;;10.05;;
17566;SDS011;8901;52.088;5.084;2023-06-14T00:44:24;11.35;;;10.25;;
17566;SDS011;8901;52.088;5.084;2023-06-14T00:46:52;11.35;;;10.20;;
17566;SDS011;8901;52.088;5.084;2023-06-14T00:49:23;10.90;;;9.77;;
17566;SDS011;8901;52.088;5.084;2023-06-14T00:51:52;10.90;;;10.00;;
17566;SDS011;8901;52.088;5.084;2023-06-14T00:54:25;11.52;;;10.38;;
17566;SDS011;8901;52.088;5.084;2023-06-14T00:57:03;11.52;;;10.38;;
17566;SDS011;8901;52.088;5.084;2023-06-14T00:59:33;10.90;;;9.90;;
17566;SDS011;8901;52.088;5.084;2023-06-14T01:02:00;10.40;;;9.60;;
17566;SDS011;8901;52.088;5.084;2023-06-14T01:04:30;10.32;;;9.52;;
17566;SDS011;8901;52.088;5.084;2023-06-14T01:06:59;10.85;;;9.75;;
17566;SDS011;8901;52.088;5.084;2023-06-14T01:09:45;10.88;;;9.95;;
17566;SDS011;8901;52.088;5.084;2023-06-14T01:12:15;10.82;;;9.73;;
17566;SDS011;8901;52.088;5.084;2023-06-14T01:17:18;12.13;;;10.40;;
17566;SDS011;8901;52.088;5.084;2023-06-14T01:19:48;11.40;;;10.43;;
17566;SDS011;8901;52.088;5.084;2023-06-14T01:22:18;16.50;;;10.32;;
17566;SDS011;8901;52.088;5.084;2023-06-14T01:24:47;11.70;;;10.02;;
17566;SDS011;8901;52.088;5.084;2023-06-14T01:27:16;11.85;;;10.48;;
17566;SDS011;8901;52.088;5.084;2023-06-14T01:29:45;10.88;;;9.80;;
17566;SDS011;8901;52.088;5.084;2023-06-14T01:32:16;10.30;;;9.60;;
17566;SDS011;8901;52.088;5.084;2023-06-14T01:34:44;11.77;;;9.70;;
17566;SDS011;8901;52.088;5.084;2023-06-14T01:37:12;10.68;;;9.45;;
17566;SDS011;8901;52.088;5.084;2023-06-14T01:39:39;10.73;;;9.82;;
17566;SDS011;8901;52.088;5.084;2023-06-14T01:42:11;10.68;;;9.68;;
17566;SDS011;8901;52.088;5.084;2023-06-14T01:47:26;10.73;;;9.65;;
17566;SDS011;8901;52.088;5.084;2023-06-14T01:49:54;10.60;;;9.27;;
17566;SDS011;8901;52.088;5.084;2023-06-14T01:52:21;10.93;;;10.05;;
17566;SDS011;8901;52.088;5.084;2023-06-14T01:54:49;10.70;;;9.88;;
17566;SDS011;8901;52.088;5.084;2023-06-14T01:57:18;12.27;;;9.95;;
17566;SDS011;8901;52.088;5.084;2023-06-14T01:59:45;10.63;;;9.73;;
17566;SDS011;8901;52.088;5.084;2023-06-14T02:02:13;10.80;;;10.00;;
17566;SDS011;8901;52.088;5.084;2023-06-14T02:04:41;10.52;;;9.30;;
17566;SDS011;8901;52.088;5.084;2023-06-14T02:07:08;10.45;;;9.45;;
17566;SDS011;8901;52.088;5.084;2023-06-14T02:09:35;11.05;;;10.00;;
17566;SDS011;8901;52.088;5.084;2023-06-14T02:12:02;10.35;;;9.55;;
17566;SDS011;8901;52.088;5.084;2023-06-14T02:14:32;10.82;;;9.95;;
17566;SDS011;8901;52.088;5.084;2023-06-14T02:16:59;10.70;;;9.90;;
17566;SDS011;8901;52.088;5.084;2023-06-14T02:19:27;11.23;;;10.10;;
17566;SDS011;8901;52.088;5.084;2023-06-14T02:21:54;10.18;;;9.32;;
17566;SDS011;8901;52.088;5.084;2023-06-14T02:24:21;10.98;;;10.07;;
17566;SDS011;8901;52.088;5.084;2023-06-14T02:26:48;11.20;;;10.30;;
17566;SDS011;8901;52.088;5.084;2023-06-14T02:29:15;10.75;;;9.95;;
17566;SDS011;8901;52.088;5.084;2023-06-14T02:31:44;10.65;;;9.65;;
17566;SDS011;8901;52.088;5.084;2023-06-14T02:34:12;12.63;;;10.30;;
17566;SDS011;8901;52.088;5.084;2023-06-14T02:36:39;10.48;;;9.65;;
17566;SDS011;8901;52.088;5.084;2023-06-14T02:39:07;11.30;;;9.68;;
17566;SDS011;8901;52.088;5.084;2023-06-14T02:41:35;12.85;;;9.95;;
17566;SDS011;8901;52.088;5.084;2023-06-14T02:44:03;11.27;;;10.25;;
17566;SDS011;8901;52.088;5.084;2023-06-14T02:46:39;10.35;;;9.65;;
17566;SDS011;8901;52.088;5.084;2023-06-14T02:49:10;10.30;;;9.48;;
17566;SDS011;8901;52.088;5.084;2023-06-14T02:51:37;13.93;;;9.80;;
17566;SDS011;8901;52.088;5.084;2023-06-14T02:54:05;10.80;;;9.90;;
17566;SDS011;8901;52.088;5.084;2023-06-14T02:56:32;10.60;;;9.90;;
17566;SDS011;8901;52.088;5.084;2023-06-14T02:59:00;11.10;;;10.23;;
17566;SDS011;8901;52.088;5.084;2023-06-14T03:01:28;10.38;;;9.50;;
17566;SDS011;8901;52.088;5.084;2023-06-14T03:03:59;11.20;;;10.00;;
17566;SDS011;8901;52.088;5.084;2023-06-14T03:06:29;12.35;;;10.00;;
17566;SDS011;8901;52.088;5.084;2023-06-14T03:08:57;10.52;;;9.40;;
17566;SDS011;8901;52.088;5.084;2023-06-14T03:11:26;11.15;;;9.93;;
17566;SDS011;8901;52.088;5.084;2023-06-14T03:13:53;10.73;;;9.80;;
17566;SDS011;8901;52.088;5.084;2023-06-14T03:16:21;11.05;;;9.95;;
17566;SDS011;8901;52.088;5.084;2023-06-14T03:18:49;10.10;;;9.30;;
17566;SDS011;8901;52.088;5.084;2023-06-14T03:24:11;10.57;;;9.50;;
17566;SDS011;8901;52.088;5.084;2023-06-14T03:26:38;11.35;;;10.27;;
17566;SDS011;8901;52.088;5.084;2023-06-14T03:29:05;15.30;;;10.52;;
17566;SDS011;8901;52.088;5.084;2023-06-14T03:31:33;10.90;;;9.95;;
17566;SDS011;8901;52.088;5.084;2023-06-14T03:34:01;11.73;;;10.52;;
17566;SDS011;8901;52.088;5.084;2023-06-14T03:36:28;11.48;;;10.30;;
17566;SDS011;8901;52.088;5.084;2023-06-14T03:38:55;11.75;;;10.65;;
17566;SDS011;8901;52.088;5.084;2023-06-14T03:41:24;10.52;;;9.73;;
17566;SDS011;8901;52.088;5.084;2023-06-14T03:43:52;11.13;;;10.00;;
17566;SDS011;8901;52.088;5.084;2023-06-14T03:46:19;10.70;;;9.73;;
17566;SDS011;8901;52.088;5.084;2023-06-14T03:48:46;11.57;;;10.52;;
17566;SDS011;8901;52.088;5.084;2023-06-14T03:57:11;10.50;;;9.73;;
17566;SDS011;8901;52.088;5.084;2023-06-14T03:59:40;11.57;;;10.45;;
17566;SDS011;8901;52.088;5.084;2023-06-14T04:02:08;10.57;;;9.77;;
17566;SDS011;8901;52.088;5.084;2023-06-14T04:04:35;11.25;;;10.27;;
17566;SDS011;8901;52.088;5.084;2023-06-14T04:07:03;13.07;;;10.40;;
17566;SDS011;8901;52.088;5.084;2023-06-14T04:09:30;10.80;;;9.73;;
17566;SDS011;8901;52.088;5.084;2023-06-14T04:11:58;10.70;;;9.70;;
17566;SDS011;8901;52.088;5.084;2023-06-14T04:14:27;10.60;;;9.55;;
17566;SDS011;8901;52.088;5.084;2023-06-14T04:16:55;9.95;;;9.18;;
17566;SDS011;8901;52.088;5.084;2023-06-14T04:19:23;10.00;;;9.20;;
17566;SDS011;8901;52.088;5.084;2023-06-14T04:21:50;10.68;;;9.70;;
17566;SDS011;8901;52.088;5.084;2023-06-14T04:24:17;11.07;;;9.73;;
17566;SDS011;8901;52.088;5.084;2023-06-14T04:26:45;10.23;;;9.32;;
17566;SDS011;8901;52.088;5.084;2023-06-14T04:29:15;10.70;;;9.80;;
17566;SDS011;8901;52.088;5.084;2023-06-14T04:31:46;10.93;;;10.00;;
17566;SDS011;8901;52.088;5.084;2023-06-14T04:34:14;13.63;;;9.88;;
17566;SDS011;8901;52.088;5.084;2023-06-14T04:36:42;11.63;;;9.80;;
17566;SDS011;8901;52.088;5.084;2023-06-14T04:39:14;10.30;;;9.30;;
17566;SDS011;8901;52.088;5.084;2023-06-14T04:41:42;15.20;;;9.20;;
17566;SDS011;8901;52.088;5.084;2023-06-14T04:44:10;10.25;;;9.35;;
17566;SDS011;8901;52.088;5.084;2023-06-14T04:46:37;10.40;;;9.50;;
17566;SDS011;8901;52.088;5.084;2023-06-14T04:49:12;10.90;;;9.95;;
17566;SDS011;8901;52.088;5.084;2023-06-14T04:51:40;9.68;;;8.77;;
17566;SDS011;8901;52.088;5.084;2023-06-14T04:54:07;12.77;;;10.00;;
17566;SDS011;8901;52.088;5.084;2023-06-14T04:56:38;9.85;;;8.80;;
17566;SDS011;8901;52.088;5.084;2023-06-14T04:59:06;10.68;;;9.77;;
17566;SDS011;8901;52.088;5.084;2023-06-14T05:01:34;12.40;;;9.85;;
17566;SDS011;8901;52.088;5.084;2023-06-14T05:04:04;10.13;;;8.75;;
17566;SDS011;8901;52.088;5.084;2023-06-14T05:06:33;9.23;;;8.40;;
17566;SDS011;8901;52.088;5.084;2023-06-14T05:09:01;8.93;;;8.20;;
17566;SDS011;8901;52.088;5.084;2023-06-14T05:11:28;10.00;;;9.00;;
17566;SDS011;8901;52.088;5.084;2023-06-14T05:13:55;12.57;;;9.32;;
17566;SDS011;8901;52.088;5.084;2023-06-14T05:16:23;9.40;;;8.68;;
17566;SDS011;8901;52.088;5.084;2023-06-14T05:18:52;9.85;;;8.65;;
17566;SDS011;8901;52.088;5.084;2023-06-14T05:21:20;9.67;;;8.70;;
17566;SDS011;8901;52.088;5.084;2023-06-14T05:23:49;9.00;;;8.20;;
17566;SDS011;8901;52.088;5.084;2023-06-14T05:26:17;9.38;;;8.45;;
17566;SDS011;8901;52.088;5.084;2023-06-14T05:28:44;9.10;;;8.30;;
17566;SDS011;8901;52.088;5.084;2023-06-14T05:31:12;8.60;;;8.00;;
17566;SDS011;8901;52.088;5.084;2023-06-14T05:33:41;8.65;;;7.95;;
17566;SDS011;8901;52.088;5.084;2023-06-14T05:36:09;14.15;;;13.00;;
17566;SDS011;8901;52.088;5.084;2023-06-14T05:38:36;14.15;;;12.77;;
17566;SDS011;8901;52.088;5.084;2023-06-14T05:41:05;13.80;;;12.80;;
17566;SDS011;8901;52.088;5.084;2023-06-14T05:43:32;14.00;;;13.00;;
17566;SDS011;8901;52.088;5.084;2023-06-14T05:45:59;13.48;;;12.48;;
17566;SDS011;8901;52.088;5.084;2023-06-14T05:48:37;14.55;;;13.18;;
17566;SDS011;8901;52.088;5.084;2023-06-14T05:51:04;14.52;;;13.30;;
17566;SDS011;8901;52.088;5.084;2023-06-14T05:53:33;14.40;;;13.20;;
17566;SDS011;8901;52.088;5.084;2023-06-14T05:56:01;14.57;;;13.40;;
17566;SDS011;8901;52.088;5.084;2023-06-14T05:58:30;14.70;;;13.20;;
17566;SDS011;8901;52.088;5.084;2023-06-14T06:03:27;13.30;;;12.18;;
17566;SDS011;8901;52.088;5.084;2023-06-14T06:05:55;13.82;;;12.82;;
17566;SDS011;8901;52.088;5.084;2023-06-14T06:08:22;14.48;;;13.32;;
17566;SDS011;8901;52.088;5.084;2023-06-14T06:10:49;14.00;;;13.10;;
17566;SDS011;8901;52.088;5.084;2023-06-14T06:13:20;14.32;;;13.18;;
17566;SDS011;8901;52.088;5.084;2023-06-14T06:15:48;13.98;;;12.70;;
17566;SDS011;8901;52.088;5.084;2023-06-14T06:18:15;14.05;;;12.85;;
17566;SDS011;8901;52.088;5.084;2023-06-14T06:20:43;13.48;;;12.30;;
17566;SDS011;8901;52.088;5.084;2023-06-14T06:23:12;14.18;;;13.07;;
17566;SDS011;8901;52.088;5.084;2023-06-14T06:25:39;13.45;;;12.55;;
17566;SDS011;8901;52.088;5.084;2023-06-14T06:28:07;14.40;;;13.30;;
17566;SDS011;8901;52.088;5.084;2023-06-14T06:30:34;13.63;;;12.35;;
17566;SDS011;8901;52.088;5.084;2023-06-14T06:33:03;14.82;;;13.35;;
17566;SDS011;8901;52.088;5.084;2023-06-14T06:35:30;14.23;;;12.93;;
17566;SDS011;8901;52.088;5.084;2023-06-14T06:37:58;14.13;;;12.88;;
17566;SDS011;8901;52.088;5.084;2023-06-14T06:40:26;15.77;;;13.23;;
17566;SDS011;8901;52.088;5.084;2023-06-14T06:42:54;14.45;;;13.30;;
17566;SDS011;8901;52.088;5.084;2023-06-14T06:45:37;14.25;;;13.20;;
17566;SDS011;8901;52.088;5.084;2023-06-14T06:48:06;14.35;;;13.32;;
17566;SDS011;8901;52.088;5.084;2023-06-14T06:50:35;14.63;;;13.52;;
17566;SDS011;8901;52.088;5.084;2023-06-14T06:53:02;13.50;;;12.27;;
17566;SDS011;8901;52.088;5.084;2023-06-14T06:55:30;13.43;;;12.52;;
17566;SDS011;8901;52.088;5.084;2023-06-14T06:57:57;14.13;;;12.85;;
17566;SDS011;8901;52.088;5.084;2023-06-14T07:00:25;13.30;;;12.40;;
17566;SDS011;8901;52.088;5.084;2023-06-14T07:03:01;16.05;;;12.88;;
17566;SDS011;8901;52.088;5.084;2023-06-14T07:05:30;14.35;;;13.20;;
17566;SDS011;8901;52.088;5.084;2023-06-14T07:07:58;13.90;;;12.65;;
17566;SDS011;8901;52.088;5.084;2023-06-14T07:10:25;13.75;;;12.57;;
17566;SDS011;8901;52.088;5.084;2023-06-14T07:12:52;14.00;;;12.82;;
17566;SDS011;8901;52.088;5.084;2023-06-14T07:15:20;13.35;;;12.23;;
17566;SDS011;8901;52.088;5.084;2023-06-14T07:17:47;13.55;;;12.45;;
17566;SDS011;8901;52.088;5.084;2023-06-14T07:20:14;14.15;;;12.98;;
17566;SDS011;8901;52.088;5.084;2023-06-14T07:22:43;14.77;;;13.15;;
17566;SDS011;8901;52.088;5.084;2023-06-14T07:25:10;14.55;;;13.40;;
17566;SDS011;8901;52.088;5.084;2023-06-14T07:27:39;16.33;;;13.55;;
17566;SDS011;8901;52.088;5.084;2023-06-14T07:30:07;14.80;;;13.43;;
17566;SDS011;8901;52.088;5.084;2023-06-14T07:35:07;15.02;;;13.63;;
17566;SDS011;8901;52.088;5.084;2023-06-14T07:37:35;14.88;;;13.88;;
17566;SDS011;8901;52.088;5.084;2023-06-14T07:40:04;15.52;;;14.15;;
17566;SDS011;8901;52.088;5.084;2023-06-14T07:42:32;14.63;;;13.52;;
17566;SDS011;8901;52.088;5.084;2023-06-14T07:44:59;14.57;;;13.40;;
17566;SDS011;8901;52.088;5.084;2023-06-14T07:47:26;13.57;;;12.65;;
17566;SDS011;8901;52.088;5.084;2023-06-14T07:49:54;14.00;;;13.10;;
17566;SDS011;8901;52.088;5.084;2023-06-14T07:52:22;13.77;;;12.57;;
17566;SDS011;8901;52.088;5.084;2023-06-14T07:54:49;14.52;;;13.38;;
17566;SDS011;8901;52.088;5.084;2023-06-14T07:57:17;14.82;;;13.73;;
17566;SDS011;8901;52.088;5.084;2023-06-14T07:59:45;14.02;;;13.07;;
17566;SDS011;8901;52.088;5.084;2023-06-14T08:02:12;14.48;;;13.38;;
17566;SDS011;8901;52.088;5.084;2023-06-14T08:04:39;13.77;;;12.38;;
17566;SDS011;8901;52.088;5.084;2023-06-14T08:07:07;15.02;;;13.85;;
17566;SDS011;8901;52.088;5.084;2023-06-14T08:09:34;14.73;;;13.70;;
17566;SDS011;8901;52.088;5.084;2023-06-14T08:12:03;14.98;;;13.80;;
17566;SDS011;8901;52.088;5.084;2023-06-14T08:14:47;14.80;;;13.68;;
17566;SDS011;8901;52.088;5.084;2023-06-14T08:17:14;15.52;;;14.38;;
17566;SDS011;8901;52.088;5.084;2023-06-14T08:19:41;13.73;;;12.57;;
17566;SDS011;8901;52.088;5.084;2023-06-14T08:22:08;15.40;;;13.90;;
17566;SDS011;8901;52.088;5.084;2023-06-14T08:24:37;14.48;;;13.43;;
17566;SDS011;8901;52.088;5.084;2023-06-14T08:27:05;13.82;;;12.70;;
17566;SDS011;8901;52.088;5.084;2023-06-14T08:29:32;14.77;;;13.15;;
17566;SDS011;8901;52.088;5.084;2023-06-14T08:32:01;14.18;;;12.73;;
17566;SDS011;8901;52.088;5.084;2023-06-14T08:34:30;15.55;;;13.95;;
17566;SDS011;8901;52.088;5.084;2023-06-14T08:37:01;14.57;;;13.43;;
17566;SDS011;8901;52.088;5.084;2023-06-14T08:39:28;14.05;;;12.95;;
17566;SDS011;8901;52.088;5.084;2023-06-14T08:41:55;14.07;;;13.07;;
17566;SDS011;8901;52.088;5.084;2023-06-14T08:44:23;14.30;;;12.90;;
17566;SDS011;8901;52.088;5.084;2023-06-14T08:46:51;13.98;;;12.98;;
17566;SDS011;8901;52.088;5.084;2023-06-14T08:49:19;14.43;;;13.15;;
17566;SDS011;8901;52.088;5.084;2023-06-14T08:54:59;13.80;;;12.82;;
17566;SDS011;8901;52.088;5.084;2023-06-14T08:57:27;13.68;;;12.70;;
17566;SDS011;8901;52.088;5.084;2023-06-14T08:59:56;13.45;;;12.55;;
17566;SDS011;8901;52.088;5.084;2023-06-14T09:02:26;14.00;;;12.75;;
17566;SDS011;8901;52.088;5.084;2023-06-14T09:04:56;12.43;;;11.63;;
17566;SDS011;8901;52.088;5.084;2023-06-14T09:07:26;13.77;;;12.80;;
17566;SDS011;8901;52.088;5.084;2023-06-14T09:10:04;13.73;;;12.65;;
17566;SDS011;8901;52.088;5.084;2023-06-14T09:12:32;12.68;;;11.55;;
17566;SDS011;8901;52.088;5.084;2023-06-14T09:14:59;14.43;;;13.23;;
17566;SDS011;8901;52.088;5.084;2023-06-14T09:17:31;13.43;;;12.48;;
17566;SDS011;8901;52.088;5.084;2023-06-14T09:20:00;13.85;;;12.65;;
17566;SDS011;8901;52.088;5.084;2023-06-14T09:22:30;12.70;;;11.85;;
17566;SDS011;8901;52.088;5.084;2023-06-14T09:24:58;13.75;;;12.63;;
17566;SDS011;8901;52.088;5.084;2023-06-14T09:27:25;16.27;;;14.98;;
17566;SDS011;8901;52.088;5.084;2023-06-14T09:32:36;13.20;;;12.30;;
17566;SDS011;8901;52.088;5.084;2023-06-14T09:35:06;12.88;;;11.88;;
17566;SDS011;8901;52.088;5.084;2023-06-14T09:37:34;12.70;;;11.65;;
17566;SDS011;8901;52.088;5.084;2023-06-14T09:40:03;12.93;;;12.00;;
17566;SDS011;8901;52.088;5.084;2023-06-14T09:42:32;14.88;;;12.05;;
17566;SDS011;8901;52.088;5.084;2023-06-14T09:45:00;13.20;;;12.35;;
17566;SDS011;8901;52.088;5.084;2023-06-14T09:47:29;13.32;;;12.43;;
17566;SDS011;8901;52.088;5.084;2023-06-14T09:49:56;13.82;;;12.68;;
17566;SDS011;8901;52.088;5.084;2023-06-14T09:52:26;13.90;;;13.10;;
17566;SDS011;8901;52.088;5.084;2023-06-14T09:54:54;13.25;;;12.52;;
17566;SDS011;8901;52.088;5.084;2023-06-14T09:57:22;14.65;;;13.35;;
17566;SDS011;8901;52.088;5.084;2023-06-14T09:59:52;13.80;;;12.88;;
17566;SDS011;8901;52.088;5.084;2023-06-14T10:02:22;14.20;;;13.10;;
17566;SDS011;8901;52.088;5.084;2023-06-14T10:04:53;14.55;;;13.70;;
17566;SDS011;8901;52.088;5.084;2023-06-14T10:07:22;13.68;;;12.88;;
17566;SDS011;8901;52.088;5.084;2023-06-14T10:09:52;14.10;;;13.10;;
17566;SDS011;8901;52.088;5.084;2023-06-14T10:12:20;13.85;;;13.02;;
17566;SDS011;8901;52.088;5.084;2023-06-14T10:14:48;13.40;;;12.60;;
17566;SDS011;8901;52.088;5.084;2023-06-14T10:17:20;14.25;;;13.45;;
17566;SDS011;8901;52.088;5.084;2023-06-14T10:20:03;14.52;;;13.57;;
17566;SDS011;8901;52.088;5.084;2023-06-14T10:22:35;14.05;;;13.15;;
17566;SDS011;8901;52.088;5.084;2023-06-14T10:25:10;14.25;;;13.20;;
17566;SDS011;8901;52.088;5.084;2023-06-14T10:27:41;14.02;;;13.15;;
17566;SDS011;8901;52.088;5.084;2023-06-14T10:30:11;13.82;;;13.02;;
17566;SDS011;8901;52.088;5.084;2023-06-14T10:33:03;14.02;;;13.05;;
17566;SDS011;8901;52.088;5.084;2023-06-14T10:35:33;14.68;;;13.65;;
17566;SDS011;8901;52.088;5.084;2023-06-14T10:38:07;14.27;;;13.27;;
17566;SDS011;8901;52.088;5.084;2023-06-14T10:40:35;14.82;;;13.80;;
17566;SDS011;8901;52.088;5.084;2023-06-14T10:51:29;12.65;;;11.85;;
17566;SDS011;8901;52.088;5.084;2023-06-14T10:53:58;13.02;;;12.27;;
17566;SDS011;8901;52.088;5.084;2023-06-14T10:56:27;13.18;;;12.20;;
17566;SDS011;8901;52.088;5.084;2023-06-14T10:58:55;12.70;;;11.77;;
17566;SDS011;8901;52.088;5.084;2023-06-14T11:01:28;12.90;;;12.00;;
17566;SDS011;8901;52.088;5.084;2023-06-14T11:04:01;11.80;;;11.10;;
17566;SDS011;8901;52.088;5.084;2023-06-14T11:06:36;11.38;;;10.57;;
17566;SDS011;8901;52.088;5.084;2023-06-14T11:09:17;12.00;;;11.20;;
17566;SDS011;8901;52.088;5.084;2023-06-14T11:11:50;12.00;;;11.02;;
17566;SDS011;8901;52.088;5.084;2023-06-14T11:14:18;11.77;;;10.95;;
17566;SDS011;8901;52.088;5.084;2023-06-14T11:16:47;11.68;;;11.02;;
17566;SDS011;8901;52.088;5.084;2023-06-14T11:19:15;12.43;;;11.70;;
17566;SDS011;8901;52.088;5.084;2023-06-14T11:21:46;13.27;;;12.35;;
17566;SDS011;8901;52.088;5.084;2023-06-14T11:24:14;13.15;;;12.25;;
17566;SDS011;8901;52.088;5.084;2023-06-14T11:26:41;13.65;;;12.48;;
17566;SDS011;8901;52.088;5.084;2023-06-14T11:29:10;13.75;;;12.75;;
17566;SDS011;8901;52.088;5.084;2023-06-14T11:31:37;13.55;;;12.57;;
17566;SDS011;8901;52.088;5.084;2023-06-14T11:34:05;14.00;;;13.00;;
17566;SDS011;8901;52.088;5.084;2023-06-14T11:36:33;13.40;;;12.60;;
17566;SDS011;8901;52.088;5.084;2023-06-14T11:39:01;12.98;;;11.80;;
17566;SDS011;8901;52.088;5.084;2023-06-14T11:41:34;12.25;;;11.20;;
17566;SDS011;8901;52.088;5.084;2023-06-14T11:44:02;12.90;;;12.10;;
17566;SDS011;8901;52.088;5.084;2023-06-14T11:46:30;13.13;;;12.23;;
17566;SDS011;8901;52.088;5.084;2023-06-14T11:48:58;12.75;;;11.95;;
17566;SDS011;8901;52.088;5.084;2023-06-14T11:51:28;12.77;;;11.98;;
17566;SDS011;8901;52.088;5.084;2023-06-14T11:53:55;12.88;;;11.98;;
17566;SDS011;8901;52.088;5.084;2023-06-14T11:56:23;13.55;;;12.27;;
17566;SDS011;8901;52.088;5.084;2023-06-14T11:58:50;12.95;;;12.10;;
17566;SDS011;8901;52.088;5.084;2023-06-14T12:01:18;12.18;;;11.48;;
17566;SDS011;8901;52.088;5.084;2023-06-14T12:03:50;13.30;;;12.32;;
17566;SDS011;8901;52.088;5.084;2023-06-14T12:06:25;12.98;;;12.13;;
17566;SDS011;8901;52.088;5.084;2023-06-14T12:08:57;13.68;;;12.55;;
17566;SDS011;8901;52.088;5.084;2023-06-14T12:11:24;12.90;;;12.15;;
17566;SDS011;8901;52.088;5.084;2023-06-14T12:13:56;13.10;;;12.23;;
17566;SDS011;8901;52.088;5.084;2023-06-14T12:19:42;11.80;;;11.18;;
17566;SDS011;8901;52.088;5.084;2023-06-14T12:22:12;12.55;;;11.60;;
17566;SDS011;8901;52.088;5.084;2023-06-14T12:27:28;13.88;;;12.93;;
17566;SDS011;8901;52.088;5.084;2023-06-14T12:29:59;13.55;;;12.68;;
17566;SDS011;8901;52.088;5.084;2023-06-14T12:38:45;13.68;;;12.88;;
17566;SDS011;8901;52.088;5.084;2023-06-14T12:41:19;13.90;;;12.90;;
17566;SDS011;8901;52.088;5.084;2023-06-14T12:43:54;13.75;;;12.63;;
17566;SDS011;8901;52.088;5.084;2023-06-14T12:55:31;13.18;;;12.38;;
17566;SDS011;8901;52.088;5.084;2023-06-14T13:03:42;12.50;;;11.50;;
17566;SDS011;8901;52.088;5.084;2023-06-14T13:06:17;12.82;;;11.88;;
17566;SDS011;8901;52.088;5.084;2023-06-14T13:14:02;13.43;;;12.52;;
17566;SDS011;8901;52.088;5.084;2023-06-14T13:22:30;12.65;;;11.82;;
17566;SDS011;8901;52.088;5.084;2023-06-14T13:24:59;13.75;;;12.52;;
17566;SDS011;8901;52.088;5.084;2023-06-14T13:30:33;12.07;;;11.23;;
17566;SDS011;8901;52.088;5.084;2023-06-14T13:38:20;13.35;;;12.45;;
17566;SDS011;8901;52.088;5.084;2023-06-14T13:50:10;12.40;;;11.60;;
17566;SDS011;8901;52.088;5.084;2023-06-14T13:52:46;12.07;;;11.38;;
17566;SDS011;8901;52.088;5.084;2023-06-14T14:03:55;12.80;;;12.00;;
17566;SDS011;8901;52.088;5.084;2023-06-14T14:09:27;12.95;;;12.18;;
17566;SDS011;8901;52.088;5.084;2023-06-14T14:12:01;13.60;;;12.80;;
17566;SDS011;8901;52.088;5.084;2023-06-14T14:14:30;14.20;;;13.02;;
17566;SDS011;8901;52.088;5.084;2023-06-14T14:17:04;14.07;;;13.27;;
17566;SDS011;8901;52.088;5.084;2023-06-14T14:19:42;14.70;;;13.50;;
17566;SDS011;8901;52.088;5.084;2023-06-14T14:22:09;14.45;;;13.55;;
17566;SDS011;8901;52.088;5.084;2023-06-14T14:24:40;14.13;;;13.25;;
17566;SDS011;8901;52.088;5.084;2023-06-14T14:27:14;13.10;;;12.30;;
17566;SDS011;8901;52.088;5.084;2023-06-14T14:32:31;14.63;;;13.27;;
17566;SDS011;8901;52.088;5.084;2023-06-14T14:38:02;14.20;;;13.23;;
17566;SDS011;8901;52.088;5.084;2023-06-14T14:40:31;13.82;;;12.98;;
17566;SDS011;8901;52.088;5.084;2023-06-14T14:43:11;14.57;;;13.43;;
17566;SDS011;8901;52.088;5.084;2023-06-14T14:54:13;14.80;;;13.80;;
17566;SDS011;8901;52.088;5.084;2023-06-14T15:05:32;13.80;;;12.75;;
17566;SDS011;8901;52.088;5.084;2023-06-14T15:08:00;14.25;;;13.07;;
17566;SDS011;8901;52.088;5.084;2023-06-14T15:13:31;14.32;;;13.20;;
17566;SDS011;8901;52.088;5.084;2023-06-14T15:24:49;13.73;;;12.73;;
17566;SDS011;8901;52.088;5.084;2023-06-14T15:30:26;14.70;;;13.80;;
17566;SDS011;8901;52.088;5.084;2023-06-14T15:35:48;13.73;;;12.90;;
17566;SDS011;8901;52.088;5.084;2023-06-14T15:38:22;14.32;;;13.32;;
17566;SDS011;8901;52.088;5.084;2023-06-14T15:44:01;14.50;;;13.60;;
17566;SDS011;8901;52.088;5.084;2023-06-14T15:52:00;13.73;;;12.48;;
17566;SDS011;8901;52.088;5.084;2023-06-14T15:57:46;13.50;;;12.30;;
17566;SDS011;8901;52.088;5.084;2023-06-14T16:00:17;13.85;;;12.15;;
17566;SDS011;8901;52.088;5.084;2023-06-14T16:02:59;13.52;;;12.50;;
17566;SDS011;8901;52.088;5.084;2023-06-14T16:05:30;12.95;;;12.15;;
17566;SDS011;8901;52.088;5.084;2023-06-14T16:07:58;13.30;;;12.40;;
17566;SDS011;8901;52.088;5.084;2023-06-14T16:13:30;13.70;;;12.57;;
17566;SDS011;8901;52.088;5.084;2023-06-14T16:18:52;12.95;;;12.15;;
17566;SDS011;8901;52.088;5.084;2023-06-14T16:30:15;13.10;;;12.40;;
17566;SDS011;8901;52.088;5.084;2023-06-14T16:32:50;14.18;;;13.27;;
17566;SDS011;8901;52.088;5.084;2023-06-14T16:35:38;13.65;;;12.38;;
17566;SDS011;8901;52.088;5.084;2023-06-14T16:38:08;13.18;;;12.43;;
17566;SDS011;8901;52.088;5.084;2023-06-14T16:40:44;14.38;;;13.38;;
17566;SDS011;8901;52.088;5.084;2023-06-14T16:43:17;10.25;;;9.60;;
17566;SDS011;8901;52.088;5.084;2023-06-14T16:51:28;10.07;;;9.18;;
17566;SDS011;8901;52.088;5.084;2023-06-14T17:05:52;9.80;;;9.23;;
17566;SDS011;8901;52.088;5.084;2023-06-14T17:17:22;11.52;;;10.65;;
17566;SDS011;8901;52.088;5.084;2023-06-14T17:22:58;11.60;;;10.70;;
17566;SDS011;8901;52.088;5.084;2023-06-14T17:25:42;11.30;;;10.52;;
17566;SDS011;8901;52.088;5.084;2023-06-14T17:31:14;9.90;;;8.98;;
17566;SDS011;8901;52.088;5.084;2023-06-14T17:39:39;10.30;;;9.50;;
17566;SDS011;8901;52.088;5.084;2023-06-14T17:42:08;11.43;;;10.43;;
17566;SDS011;8901;52.088;5.084;2023-06-14T17:44:42;12.15;;;11.15;;
17566;SDS011;8901;52.088;5.084;2023-06-14T17:47:19;10.40;;;9.75;;
17566;SDS011;8901;52.088;5.084;2023-06-14T17:52:54;10.77;;;9.98;;
17566;SDS011;8901;52.088;5.084;2023-06-14T17:55:28;9.30;;;8.60;;
17566;SDS011;8901;52.088;5.084;2023-06-14T17:58:04;10.73;;;10.00;;
17566;SDS011;8901;52.088;5.084;2023-06-14T18:00:33;10.38;;;9.60;;
17566;SDS011;8901;52.088;5.084;2023-06-14T18:03:00;10.57;;;9.77;;
17566;SDS011;8901;52.088;5.084;2023-06-14T18:08:13;10.40;;;9.70;;
17566;SDS011;8901;52.088;5.084;2023-06-14T18:10:42;10.80;;;9.90;;
17566;SDS011;8901;52.088;5.084;2023-06-14T18:13:09;11.90;;;10.07;;
17566;SDS011;8901;52.088;5.084;2023-06-14T18:15:36;11.18;;;10.25;;
17566;SDS011;8901;52.088;5.084;2023-06-14T18:18:03;11.90;;;10.32;;
17566;SDS011;8901;52.088;5.084;2023-06-14T18:20:31;11.05;;;10.00;;
17566;SDS011;8901;52.088;5.084;2023-06-14T18:22:59;11.35;;;10.35;;
17566;SDS011;8901;52.088;5.084;2023-06-14T18:25:26;10.00;;;9.40;;
17566;SDS011;8901;52.088;5.084;2023-06-14T18:27:55;12.35;;;10.20;;